| time (UTC) | temp F | wind direction | speed MPH | gust MPH | rain 1hr in | rain 24hr in | rain mn in | humidity % | barometer mb |
| 20260504184207 | 55 | 45 | 2.0 | 4.0 | 0.00 | 0.00 | 0.00 | 77 | 1016.6 |
| 20260504184007 | 55 | 45 | 3.0 | 4.0 | 0.00 | 0.00 | 0.00 | 77 | 1016.6 |
| 20260504183807 | 55 | 45 | 3.0 | 4.0 | 0.00 | 0.00 | 0.00 | 76 | 1016.6 |
| 20260504183207 | 55 | 45 | 3.0 | 5.0 | 0.00 | 0.00 | 0.00 | 77 | 1016.6 |
| 20260504182807 | 55 | 45 | 2.0 | 5.0 | 0.00 | 0.00 | 0.00 | 77 | 1016.5 |
| 20260504182607 | 55 | 45 | 2.0 | 5.0 | 0.00 | 0.00 | 0.00 | 77 | 1016.6 |
| 20260504182407 | 55 | 45 | 2.0 | 5.0 | 0.00 | 0.00 | 0.00 | 77 | 1016.6 |
| 20260504182207 | 55 | 45 | 2.0 | 4.0 | 0.00 | 0.00 | 0.00 | 76 | 1016.6 |
| 20260504181807 | 55 | 45 | 3.0 | 4.0 | 0.00 | 0.00 | 0.00 | 76 | 1016.6 |
| 20260504181607 | 55 | 45 | 3.0 | 4.0 | 0.00 | 0.00 | 0.00 | 76 | 1016.5 |
| 20260504181407 | 55 | 45 | 3.0 | 4.0 | 0.00 | 0.00 | 0.00 | 76 | 1016.4 |
| 20260504181207 | 55 | 45 | 3.0 | 4.0 | 0.00 | 0.00 | 0.00 | 75 | 1016.4 |
| 20260504181007 | 55 | 45 | 3.0 | 4.0 | 0.00 | 0.00 | 0.00 | 75 | 1016.4 |
| 20260504180807 | 55 | 45 | 2.0 | 4.0 | 0.00 | 0.00 | 0.00 | 74 | 1016.5 |
| 20260504180607 | 55 | 45 | 2.0 | 4.0 | 0.00 | 0.00 | 0.00 | 75 | 1016.5 |
| 20260504180407 | 55 | 45 | 1.0 | 4.0 | 0.00 | 0.00 | 0.00 | 75 | 1016.5 |
| 20260504180207 | 55 | 45 | 1.0 | 4.0 | 0.00 | 0.00 | 0.00 | 75 | 1016.5 |
| 20260504180007 | 55 | 45 | 0.0 | 4.0 | 0.00 | 0.00 | 0.00 | 75 | 1016.5 |
| 20260504175807 | 55 | 45 | 0.0 | 4.0 | 0.00 | 0.00 | 0.00 | 75 | 1016.4 |
| 20260504175607 | 55 | 45 | 0.0 | 3.0 | 0.00 | 0.00 | 0.00 | 75 | 1016.5 |
| 20260504175407 | 55 | 0 | 0.0 | 0.0 | 0.00 | 0.00 | 0.00 | 74 | 1016.4 |
| 20260504175207 | 55 | 0 | 0.0 | 0.0 | 0.00 | 0.00 | 0.00 | 73 | 1016.5 |
| 20260504175007 | 55 | 0 | 0.0 | 0.0 | 0.00 | 0.00 | 0.00 | 73 | 1016.5 |
| 20260504174807 | 55 | 0 | 1.0 | 0.0 | 0.00 | 0.00 | 0.00 | 73 | 1016.4 |
| 20260504174607 | 55 | 45 | 1.0 | 1.0 | 0.00 | 0.00 | 0.00 | 74 | 1016.5 |
| 20260504174407 | 55 | 45 | 1.0 | 1.0 | 0.00 | 0.00 | 0.00 | 75 | 1016.5 |
| 20260504174207 | 55 | 45 | 2.0 | 3.0 | 0.00 | 0.00 | 0.00 | 75 | 1016.5 |
| 20260504174007 | 55 | 45 | 2.0 | 3.0 | 0.00 | 0.00 | 0.00 | 76 | 1016.5 |
| 20260504173807 | 55 | 45 | 2.0 | 3.0 | 0.00 | 0.00 | 0.00 | 76 | 1016.4 |
| 20260504173407 | 55 | 45 | 2.0 | 4.0 | 0.00 | 0.00 | 0.00 | 75 | 1016.5 |
| 20260504173207 | 55 | 45 | 2.0 | 4.0 | 0.00 | 0.00 | 0.00 | 75 | 1016.5 |
| 20260504172807 | 55 | 45 | 1.0 | 4.0 | 0.00 | 0.00 | 0.00 | 75 | 1016.4 |
| 20260504172607 | 55 | 45 | 1.0 | 4.0 | 0.00 | 0.00 | 0.00 | 74 | 1016.5 |
| 20260504172407 | 55 | 45 | 1.0 | 3.0 | 0.00 | 0.00 | 0.00 | 73 | 1016.5 |
| 20260504172207 | 55 | 45 | 1.0 | 3.0 | 0.00 | 0.00 | 0.00 | 73 | 1016.5 |
| 20260504172008 | 55 | 45 | 1.0 | 3.0 | 0.00 | 0.00 | 0.00 | 73 | 1016.5 |
| 20260504171807 | 55 | 45 | 1.0 | 2.0 | 0.00 | 0.00 | 0.00 | 72 | 1016.5 |
| 20260504171607 | 55 | 45 | 1.0 | 2.0 | 0.00 | 0.00 | 0.00 | 72 | 1016.5 |
| 20260504171406 | 55 | 45 | 1.0 | 2.0 | 0.00 | 0.00 | 0.00 | 72 | 1016.6 |
| 20260504171207 | 55 | 45 | 1.0 | 2.0 | 0.00 | 0.00 | 0.00 | 72 | 1016.5 |
| 20260504170607 | 55 | 45 | 1.0 | 4.0 | 0.00 | 0.00 | 0.00 | 73 | 1016.6 |
| 20260504170407 | 55 | 45 | 1.0 | 4.0 | 0.00 | 0.00 | 0.00 | 72 | 1016.6 |
| 20260504170207 | 55 | 45 | 1.0 | 4.0 | 0.00 | 0.00 | 0.00 | 72 | 1016.6 |
| 20260504160407 | 56 | 45 | 5.0 | 7.0 | 0.00 | 0.00 | 0.00 | 69 | 1016.6 |
| 20260504151007 | 56 | 45 | 4.0 | 7.0 | 0.00 | 0.00 | 0.00 | 72 | 1016.9 |
| 20260504150806 | 56 | 46 | 4.0 | 7.0 | 0.00 | 0.00 | 0.00 | 72 | 1016.9 |
| 20260504150606 | 56 | 45 | 4.0 | 7.0 | 0.00 | 0.00 | 0.00 | 72 | 1016.9 |
| 20260504150407 | 56 | 46 | 4.0 | 7.0 | 0.00 | 0.00 | 0.00 | 72 | 1016.9 |
| 20260504150207 | 56 | 45 | 5.0 | 8.0 | 0.00 | 0.00 | 0.00 | 73 | 1016.9 |
| 20260504141207 | 55 | 46 | 4.0 | 8.0 | 0.00 | 0.00 | 0.00 | 74 | 1017.0 |
| 20260504140808 | 55 | 45 | 5.0 | 10.0 | 0.00 | 0.00 | 0.00 | 74 | 1016.9 |
| 20260504140608 | 55 | 46 | 6.0 | 10.0 | 0.00 | 0.00 | 0.00 | 74 | 1016.9 |
| 20260504140408 | 55 | 45 | 6.0 | 10.0 | 0.00 | 0.00 | 0.00 | 74 | 1016.8 |
| 20260504140208 | 55 | 45 | 6.0 | 10.0 | 0.00 | 0.00 | 0.00 | 73 | 1016.8 |
| 20260504130609 | 60 | 46 | 6.0 | 13.0 | 0.00 | 0.00 | 0.00 | 65 | 1016.6 |
| 20260504130408 | 60 | 46 | 5.0 | 13.0 | 0.00 | 0.00 | 0.00 | 64 | 1016.6 |
| 20260504110608 | 54 | 45 | 8.0 | 13.0 | 0.00 | 0.00 | 0.00 | 74 | 1017.0 |
| 20260504110408 | 54 | 45 | 8.0 | 12.0 | 0.00 | 0.00 | 0.00 | 74 | 1016.9 |
| 20260504110209 | 54 | 46 | 8.0 | 12.0 | 0.00 | 0.00 | 0.00 | 73 | 1016.9 |
| 20260504100608 | 53 | 45 | 6.0 | 9.0 | 0.00 | 0.00 | 0.00 | 77 | 1017.1 |
| 20260504100408 | 53 | 45 | 6.0 | 9.0 | 0.00 | 0.00 | 0.00 | 77 | 1017.0 |
| 20260504100208 | 53 | 46 | 6.0 | 9.0 | 0.00 | 0.00 | 0.00 | 78 | 1017.0 |
| 20260504081808 | 50 | 45 | 7.0 | 11.0 | 0.00 | 0.00 | 0.00 | 85 | 1016.6 |
| 20260504081608 | 50 | 46 | 7.0 | 11.0 | 0.00 | 0.00 | 0.00 | 85 | 1016.6 |
| 20260504081408 | 50 | 45 | 7.0 | 11.0 | 0.00 | 0.00 | 0.00 | 85 | 1016.5 |
| 20260504081209 | 50 | 46 | 7.0 | 11.0 | 0.00 | 0.00 | 0.00 | 85 | 1016.5 |
| 20260504081008 | 50 | 45 | 7.0 | 11.0 | 0.00 | 0.00 | 0.00 | 85 | 1016.5 |
| 20260504080808 | 50 | 45 | 7.0 | 11.0 | 0.00 | 0.00 | 0.00 | 85 | 1016.5 |
| 20260504080408 | 50 | 45 | 7.0 | 11.0 | 0.00 | 0.00 | 0.00 | 86 | 1016.5 |
| 20260504080208 | 50 | 45 | 8.0 | 11.0 | 0.00 | 0.00 | 0.00 | 86 | 1016.4 |
| 20260504070408 | 50 | 45 | 4.0 | 7.0 | 0.00 | 0.00 | 0.00 | 85 | 1015.7 |
| 20260504070208 | 50 | 46 | 4.0 | 6.0 | 0.00 | 0.00 | 0.00 | 85 | 1015.7 |
| 20260504060208 | 50 | 45 | 4.0 | 7.0 | 0.00 | 0.00 | 0.00 | 85 | 1015.3 |
| 20260504050408 | 50 | 45 | 5.0 | 9.0 | 0.00 | 0.00 | 0.00 | 85 | 1014.5 |
| 20260504050008 | 50 | 46 | 5.0 | 9.0 | 0.00 | 0.00 | 0.00 | 85 | 1014.7 |
| 20260504045808 | 50 | 46 | 5.0 | 8.0 | 0.00 | 0.00 | 0.00 | 85 | 1014.7 |
| 20260504045608 | 50 | 46 | 4.0 | 8.0 | 0.00 | 0.00 | 0.00 | 85 | 1014.7 |
| 20260504045408 | 50 | 46 | 4.0 | 8.0 | 0.00 | 0.00 | 0.00 | 85 | 1014.7 |
| 20260504045208 | 50 | 45 | 4.0 | 8.0 | 0.00 | 0.00 | 0.00 | 85 | 1014.7 |
| 20260504044608 | 50 | 46 | 5.0 | 7.0 | 0.00 | 0.00 | 0.00 | 85 | 1014.8 |
| 20260504044408 | 50 | 45 | 5.0 | 7.0 | 0.00 | 0.00 | 0.00 | 85 | 1014.9 |
| 20260504044208 | 50 | 46 | 5.0 | 7.0 | 0.00 | 0.00 | 0.00 | 85 | 1014.9 |
| 20260504044008 | 50 | 46 | 5.0 | 7.0 | 0.00 | 0.00 | 0.00 | 85 | 1014.4 |
| 20260504043807 | 50 | 46 | 5.0 | 7.0 | 0.00 | 0.00 | 0.00 | 85 | 1014.7 |
| 20260504043607 | 50 | 46 | 5.0 | 7.0 | 0.00 | 0.00 | 0.00 | 85 | 1014.8 |
| 20260504043408 | 50 | 45 | 5.0 | 9.0 | 0.00 | 0.00 | 0.00 | 85 | 1014.9 |
| 20260504043008 | 50 | 45 | 5.0 | 9.0 | 0.00 | 0.00 | 0.00 | 85 | 1014.9 |
| 20260504042808 | 50 | 45 | 5.0 | 9.0 | 0.00 | 0.00 | 0.00 | 85 | 1014.8 |
| 20260504042608 | 50 | 45 | 5.0 | 9.0 | 0.00 | 0.00 | 0.00 | 85 | 1014.8 |
| 20260504042408 | 50 | 46 | 5.0 | 8.0 | 0.00 | 0.00 | 0.00 | 85 | 1014.8 |
| 20260504042208 | 50 | 46 | 5.0 | 8.0 | 0.00 | 0.00 | 0.00 | 85 | 1014.8 |
| 20260504042008 | 50 | 45 | 5.0 | 8.0 | 0.00 | 0.00 | 0.00 | 85 | 1014.8 |
| 20260504041808 | 50 | 46 | 5.0 | 8.0 | 0.00 | 0.00 | 0.00 | 85 | 1014.8 |
| 20260504041408 | 50 | 45 | 5.0 | 7.0 | 0.00 | 0.00 | 0.00 | 85 | 1015.0 |
| 20260504041008 | 50 | 46 | 5.0 | 8.0 | 0.00 | 0.00 | 0.00 | 85 | 1014.9 |
| 20260504040808 | 50 | 46 | 5.0 | 8.0 | 0.00 | 0.00 | 0.00 | 85 | 1014.8 |
| 20260504040608 | 50 | 45 | 5.0 | 9.0 | 0.00 | 0.00 | 0.00 | 85 | 1014.9 |
| 20260504040408 | 50 | 46 | 5.0 | 9.0 | 0.00 | 0.00 | 0.00 | 85 | 1014.8 |
| 20260504040208 | 50 | 45 | 5.0 | 9.0 | 0.00 | 0.00 | 0.00 | 85 | 1015.0 |
| 20260504040008 | 50 | 46 | 5.0 | 9.0 | 0.00 | 0.00 | 0.00 | 85 | 1015.0 |
| 20260504035808 | 50 | 46 | 5.0 | 9.0 | 0.00 | 0.00 | 0.00 | 85 | 1014.9 |
| 20260504035608 | 50 | 46 | 5.0 | 9.0 | 0.00 | 0.00 | 0.00 | 85 | 1014.8 |
| 20260504035408 | 50 | 46 | 5.0 | 9.0 | 0.00 | 0.00 | 0.00 | 85 | 1014.7 |
| 20260504034808 | 50 | 46 | 4.0 | 8.0 | 0.00 | 0.00 | 0.00 | 85 | 1014.7 |
| 20260504034608 | 50 | 46 | 4.0 | 8.0 | 0.00 | 0.00 | 0.00 | 85 | 1014.8 |
| 20260504034408 | 50 | 46 | 4.0 | 8.0 | 0.00 | 0.00 | 0.00 | 85 | 1014.8 |
| 20260504034208 | 50 | 46 | 4.0 | 8.0 | 0.00 | 0.00 | 0.00 | 85 | 1014.9 |
| 20260504033808 | 50 | 46 | 4.0 | 8.0 | 0.00 | 0.00 | 0.00 | 85 | 1014.7 |
| 20260504033608 | 50 | 46 | 4.0 | 8.0 | 0.00 | 0.00 | 0.00 | 85 | 1014.7 |
| 20260504033408 | 50 | 45 | 4.0 | 7.0 | 0.00 | 0.00 | 0.00 | 85 | 1014.6 |
| 20260504033208 | 50 | 46 | 4.0 | 7.0 | 0.00 | 0.00 | 0.00 | 85 | 1014.6 |
| 20260504033008 | 50 | 46 | 4.0 | 7.0 | 0.00 | 0.00 | 0.00 | 85 | 1014.6 |
| 20260504032807 | 50 | 45 | 4.0 | 8.0 | 0.00 | 0.00 | 0.00 | 85 | 1014.6 |
| 20260504032608 | 50 | 45 | 5.0 | 8.0 | 0.00 | 0.00 | 0.00 | 85 | 1014.7 |
| 20260504032408 | 50 | 46 | 5.0 | 8.0 | 0.00 | 0.00 | 0.00 | 85 | 1014.6 |
| 20260504032007 | 50 | 45 | 4.0 | 9.0 | 0.00 | 0.00 | 0.00 | 85 | 1014.6 |
| 20260504031808 | 50 | 46 | 4.0 | 9.0 | 0.00 | 0.00 | 0.00 | 85 | 1014.6 |
| 20260504031608 | 50 | 45 | 3.0 | 9.0 | 0.00 | 0.00 | 0.00 | 85 | 1014.6 |
| 20260504031408 | 50 | 45 | 3.0 | 9.0 | 0.00 | 0.00 | 0.00 | 85 | 1014.7 |
| 20260504031208 | 50 | 46 | 3.0 | 8.0 | 0.00 | 0.00 | 0.00 | 85 | 1014.6 |
| 20260504031008 | 50 | 46 | 2.0 | 8.0 | 0.00 | 0.00 | 0.00 | 85 | 1014.6 |
| 20260504030808 | 50 | 46 | 2.0 | 8.0 | 0.00 | 0.00 | 0.00 | 85 | 1014.6 |
| 20260504030208 | 50 | 46 | 2.0 | 5.0 | 0.00 | 0.00 | 0.00 | 85 | 1014.6 |
| 20260504030008 | 50 | 46 | 2.0 | 5.0 | 0.00 | 0.00 | 0.00 | 85 | 1014.6 |
| 20260504025808 | 50 | 45 | 1.0 | 5.0 | 0.00 | 0.00 | 0.00 | 85 | 1014.6 |
| 20260504025608 | 50 | 45 | 1.0 | 5.0 | 0.00 | 0.00 | 0.00 | 85 | 1014.5 |
| 20260504025208 | 50 | 45 | 1.0 | 5.0 | 0.00 | 0.00 | 0.00 | 85 | 1014.6 |
| 20260504025008 | 50 | 45 | 2.0 | 5.0 | 0.00 | 0.00 | 0.00 | 85 | 1014.5 |
| 20260504024608 | 50 | 46 | 2.0 | 6.0 | 0.00 | 0.00 | 0.00 | 85 | 1014.5 |
| 20260504024408 | 50 | 45 | 2.0 | 6.0 | 0.00 | 0.00 | 0.00 | 85 | 1014.5 |
| 20260504024208 | 50 | 46 | 2.0 | 6.0 | 0.00 | 0.00 | 0.00 | 85 | 1014.5 |
| 20260504024009 | 50 | 45 | 2.0 | 6.0 | 0.00 | 0.00 | 0.00 | 85 | 1014.5 |
| 20260504023808 | 50 | 46 | 2.0 | 6.0 | 0.00 | 0.00 | 0.00 | 85 | 1014.5 |
| 20260504023608 | 50 | 45 | 2.0 | 6.0 | 0.00 | 0.00 | 0.00 | 85 | 1014.6 |
| 20260504023408 | 50 | 45 | 2.0 | 6.0 | 0.00 | 0.00 | 0.00 | 85 | 1014.6 |
| 20260504023208 | 50 | 46 | 2.0 | 6.0 | 0.00 | 0.00 | 0.00 | 85 | 1014.5 |
| 20260504023008 | 50 | 46 | 2.0 | 6.0 | 0.00 | 0.00 | 0.00 | 85 | 1014.6 |
| 20260504022807 | 50 | 46 | 2.0 | 5.0 | 0.00 | 0.00 | 0.00 | 85 | 1014.5 |
| 20260504022608 | 50 | 45 | 2.0 | 6.0 | 0.00 | 0.00 | 0.00 | 85 | 1014.6 |
| 20260504022408 | 50 | 46 | 2.0 | 7.0 | 0.00 | 0.00 | 0.00 | 85 | 1014.5 |
| 20260504022008 | 50 | 46 | 2.0 | 7.0 | 0.00 | 0.00 | 0.00 | 85 | 1014.5 |
| 20260504021808 | 50 | 45 | 2.0 | 7.0 | 0.00 | 0.00 | 0.00 | 85 | 1014.5 |
| 20260504021608 | 50 | 45 | 2.0 | 7.0 | 0.00 | 0.00 | 0.00 | 85 | 1014.5 |
| 20260504021408 | 50 | 45 | 2.0 | 7.0 | 0.00 | 0.00 | 0.00 | 85 | 1014.5 |
| 20260504021208 | 50 | 45 | 2.0 | 4.0 | 0.00 | 0.00 | 0.00 | 85 | 1014.4 |
| 20260504020808 | 50 | 45 | 2.0 | 4.0 | 0.00 | 0.00 | 0.00 | 85 | 1014.4 |
| 20260504020608 | 50 | 45 | 2.0 | 4.0 | 0.00 | 0.00 | 0.00 | 85 | 1014.5 |
| 20260504020408 | 50 | 45 | 2.0 | 4.0 | 0.00 | 0.00 | 0.00 | 85 | 1014.5 |
| 20260504020208 | 50 | 45 | 2.0 | 4.0 | 0.00 | 0.00 | 0.00 | 85 | 1014.4 |
| 20260504020009 | 50 | 45 | 2.0 | 5.0 | 0.00 | 0.00 | 0.00 | 85 | 1014.5 |
| 20260504015808 | 50 | 45 | 2.0 | 5.0 | 0.00 | 0.00 | 0.00 | 85 | 1014.4 |
| 20260504015608 | 50 | 45 | 2.0 | 5.0 | 0.00 | 0.00 | 0.00 | 85 | 1014.4 |
| 20260504015408 | 50 | 46 | 3.0 | 6.0 | 0.00 | 0.00 | 0.00 | 85 | 1014.3 |
| 20260504015208 | 50 | 46 | 3.0 | 6.0 | 0.00 | 0.00 | 0.00 | 85 | 1014.3 |
| 20260504015008 | 50 | 45 | 4.0 | 6.0 | 0.00 | 0.00 | 0.00 | 85 | 1014.2 |
| 20260504014807 | 50 | 46 | 4.0 | 7.0 | 0.00 | 0.00 | 0.00 | 85 | 1014.3 |
| 20260504014607 | 50 | 46 | 4.0 | 7.0 | 0.00 | 0.00 | 0.00 | 84 | 1014.2 |
| 20260504014208 | 50 | 46 | 4.0 | 7.0 | 0.00 | 0.00 | 0.00 | 84 | 1014.2 |
| 20260504013808 | 50 | 45 | 3.0 | 7.0 | 0.00 | 0.00 | 0.00 | 84 | 1014.1 |
| 20260504013608 | 50 | 45 | 3.0 | 7.0 | 0.00 | 0.00 | 0.00 | 84 | 1014.1 |
| 20260504013408 | 50 | 46 | 2.0 | 7.0 | 0.00 | 0.00 | 0.00 | 84 | 1014.0 |
| 20260504013208 | 50 | 45 | 2.0 | 7.0 | 0.00 | 0.00 | 0.00 | 84 | 1014.1 |
| 20260504013008 | 50 | 45 | 2.0 | 6.0 | 0.00 | 0.00 | 0.00 | 84 | 1014.1 |
| 20260504012808 | 50 | 45 | 2.0 | 6.0 | 0.00 | 0.00 | 0.00 | 84 | 1014.1 |
| 20260504012608 | 50 | 45 | 2.0 | 6.0 | 0.00 | 0.00 | 0.00 | 84 | 1014.2 |
| 20260504011608 | 50 | 46 | 3.0 | 6.0 | 0.00 | 0.00 | 0.00 | 84 | 1014.1 |
| 20260504011408 | 50 | 45 | 3.0 | 6.0 | 0.00 | 0.00 | 0.00 | 84 | 1014.2 |
| 20260504011008 | 50 | 46 | 3.0 | 6.0 | 0.00 | 0.00 | 0.00 | 84 | 1014.1 |
| 20260504010808 | 50 | 46 | 4.0 | 6.0 | 0.00 | 0.00 | 0.00 | 84 | 1014.0 |
| 20260504010608 | 50 | 46 | 4.0 | 6.0 | 0.00 | 0.00 | 0.00 | 84 | 1014.1 |
| 20260504010408 | 50 | 46 | 4.0 | 7.0 | 0.00 | 0.00 | 0.00 | 84 | 1014.1 |
| 20260504010208 | 50 | 46 | 4.0 | 7.0 | 0.00 | 0.00 | 0.00 | 84 | 1014.1 |
| 20260504010008 | 50 | 45 | 4.0 | 7.0 | 0.00 | 0.00 | 0.00 | 84 | 1014.1 |
| 20260504005808 | 50 | 45 | 3.0 | 7.0 | 0.00 | 0.00 | 0.00 | 84 | 1014.0 |
| 20260504005408 | 50 | 45 | 3.0 | 6.0 | 0.00 | 0.00 | 0.00 | 84 | 1014.0 |
| 20260504005207 | 50 | 46 | 3.0 | 8.0 | 0.00 | 0.00 | 0.00 | 84 | 1014.0 |
| 20260504005008 | 50 | 46 | 3.0 | 8.0 | 0.00 | 0.00 | 0.00 | 84 | 1014.0 |
| 20260504004807 | 50 | 46 | 3.0 | 8.0 | 0.00 | 0.00 | 0.00 | 84 | 1014.0 |
| 20260504004607 | 50 | 46 | 3.0 | 8.0 | 0.00 | 0.00 | 0.00 | 84 | 1014.0 |
| 20260504004408 | 50 | 45 | 3.0 | 8.0 | 0.00 | 0.00 | 0.00 | 84 | 1013.9 |
| 20260504004208 | 50 | 46 | 3.0 | 8.0 | 0.00 | 0.00 | 0.00 | 84 | 1013.9 |
| 20260504004008 | 50 | 46 | 3.0 | 6.0 | 0.00 | 0.00 | 0.00 | 85 | 1013.9 |
| 20260504003808 | 50 | 46 | 3.0 | 7.0 | 0.00 | 0.00 | 0.00 | 84 | 1013.9 |
| 20260504003608 | 50 | 46 | 4.0 | 7.0 | 0.00 | 0.00 | 0.00 | 84 | 1013.9 |
| 20260504003408 | 50 | 46 | 4.0 | 7.0 | 0.00 | 0.00 | 0.00 | 84 | 1013.8 |
| 20260504003208 | 50 | 46 | 4.0 | 7.0 | 0.00 | 0.00 | 0.00 | 84 | 1013.9 |
| 20260504003008 | 50 | 46 | 4.0 | 7.0 | 0.00 | 0.00 | 0.00 | 84 | 1013.9 |
| 20260504002808 | 50 | 45 | 4.0 | 7.0 | 0.00 | 0.00 | 0.00 | 84 | 1013.9 |
| 20260504002608 | 50 | 46 | 4.0 | 7.0 | 0.00 | 0.00 | 0.00 | 84 | 1013.9 |
| 20260504002408 | 50 | 46 | 4.0 | 7.0 | 0.00 | 0.00 | 0.00 | 84 | 1013.9 |
| 20260504002207 | 50 | 45 | 4.0 | 7.0 | 0.00 | 0.00 | 0.00 | 84 | 1013.9 |
| 20260504002008 | 50 | 45 | 4.0 | 7.0 | 0.00 | 0.00 | 0.00 | 84 | 1013.9 |
| 20260504001808 | 50 | 46 | 4.0 | 8.0 | 0.00 | 0.00 | 0.00 | 84 | 1013.8 |
| 20260504001608 | 50 | 46 | 4.0 | 8.0 | 0.00 | 0.00 | 0.00 | 84 | 1013.8 |
| 20260504001408 | 50 | 46 | 4.0 | 8.0 | 0.00 | 0.00 | 0.00 | 84 | 1013.9 |
| 20260504001208 | 50 | 46 | 4.0 | 8.0 | 0.00 | 0.00 | 0.00 | 84 | 1013.8 |
| 20260504001008 | 50 | 45 | 5.0 | 8.0 | 0.00 | 0.00 | 0.00 | 84 | 1013.9 |
| 20260504000608 | 50 | 45 | 5.0 | 7.0 | 0.00 | 0.00 | 0.00 | 84 | 1013.9 |
| 20260504000409 | 50 | 45 | 6.0 | 7.0 | 0.00 | 0.00 | 0.00 | 84 | 1013.9 |
| 20260504000008 | 50 | 45 | 6.0 | 10.0 | 0.00 | 0.00 | 0.00 | 84 | 1013.9 |
| 20260503235608 | 50 | 46 | 5.0 | 10.0 | 0.00 | 0.00 | 0.00 | 84 | 1013.9 |
| 20260503235208 | 50 | 46 | 5.0 | 10.0 | 0.00 | 0.00 | 0.00 | 84 | 1013.8 |
| 20260503235008 | 50 | 46 | 5.0 | 8.0 | 0.00 | 0.00 | 0.00 | 84 | 1013.8 |
| 20260503234808 | 50 | 46 | 5.0 | 8.0 | 0.00 | 0.00 | 0.00 | 84 | 1013.8 |
| 20260503234608 | 50 | 45 | 5.0 | 8.0 | 0.00 | 0.00 | 0.00 | 84 | 1013.8 |
| 20260503234208 | 50 | 46 | 5.0 | 9.0 | 0.00 | 0.00 | 0.00 | 84 | 1013.9 |
| 20260503234008 | 50 | 46 | 4.0 | 9.0 | 0.00 | 0.00 | 0.00 | 84 | 1014.0 |
| 20260503233808 | 50 | 46 | 4.0 | 9.0 | 0.00 | 0.00 | 0.00 | 84 | 1013.9 |
| 20260503233608 | 50 | 45 | 3.0 | 9.0 | 0.00 | 0.00 | 0.00 | 84 | 1013.9 |
| 20260503233408 | 50 | 45 | 3.0 | 9.0 | 0.00 | 0.00 | 0.00 | 84 | 1014.0 |
| 20260503233207 | 50 | 45 | 2.0 | 9.0 | 0.00 | 0.00 | 0.00 | 84 | 1013.9 |
| 20260503233008 | 50 | 46 | 2.0 | 7.0 | 0.00 | 0.00 | 0.00 | 84 | 1013.9 |
| 20260503232608 | 50 | 45 | 2.0 | 4.0 | 0.00 | 0.00 | 0.00 | 84 | 1013.9 |
| 20260503232208 | 50 | 45 | 3.0 | 4.0 | 0.00 | 0.00 | 0.00 | 84 | 1013.9 |
| 20260503231808 | 50 | 45 | 4.0 | 5.0 | 0.00 | 0.00 | 0.00 | 84 | 1013.9 |
| 20260503231608 | 50 | 46 | 4.0 | 6.0 | 0.00 | 0.00 | 0.00 | 84 | 1013.9 |
| 20260503231407 | 50 | 46 | 4.0 | 6.0 | 0.00 | 0.00 | 0.00 | 84 | 1013.9 |
| 20260503231208 | 50 | 46 | 4.0 | 6.0 | 0.00 | 0.00 | 0.00 | 84 | 1013.9 |
| 20260503231008 | 50 | 46 | 4.0 | 6.0 | 0.00 | 0.00 | 0.00 | 84 | 1013.9 |
| 20260503230808 | 50 | 46 | 3.0 | 6.0 | 0.00 | 0.00 | 0.00 | 84 | 1013.9 |
| 20260503230609 | 50 | 46 | 3.0 | 6.0 | 0.00 | 0.00 | 0.00 | 84 | 1013.9 |
| 20260503230408 | 50 | 46 | 3.0 | 6.0 | 0.00 | 0.00 | 0.00 | 84 | 1013.9 |
| 20260503230207 | 50 | 45 | 3.0 | 5.0 | 0.00 | 0.00 | 0.00 | 84 | 1013.8 |
| 20260503225808 | 50 | 45 | 3.0 | 5.0 | 0.00 | 0.00 | 0.00 | 83 | 1013.9 |
| 20260503225608 | 50 | 45 | 3.0 | 4.0 | 0.00 | 0.00 | 0.00 | 83 | 1013.8 |
| 20260503225408 | 50 | 45 | 3.0 | 6.0 | 0.00 | 0.00 | 0.00 | 83 | 1013.7 |
| 20260503225208 | 50 | 45 | 3.0 | 7.0 | 0.00 | 0.00 | 0.00 | 83 | 1013.6 |
| 20260503225008 | 50 | 45 | 3.0 | 7.0 | 0.00 | 0.00 | 0.00 | 83 | 1013.7 |
| 20260503224808 | 50 | 45 | 3.0 | 7.0 | 0.00 | 0.00 | 0.00 | 83 | 1013.7 |
| 20260503224608 | 50 | 46 | 3.0 | 7.0 | 0.00 | 0.00 | 0.00 | 83 | 1013.7 |
| 20260503224408 | 50 | 45 | 3.0 | 7.0 | 0.00 | 0.00 | 0.00 | 83 | 1013.7 |
| 20260503224208 | 50 | 45 | 3.0 | 5.0 | 0.00 | 0.00 | 0.00 | 83 | 1013.6 |
| 20260503224008 | 50 | 45 | 3.0 | 5.0 | 0.00 | 0.00 | 0.00 | 83 | 1013.5 |
| 20260503223808 | 50 | 45 | 3.0 | 5.0 | 0.00 | 0.00 | 0.00 | 83 | 1013.5 |
| 20260503223608 | 50 | 45 | 3.0 | 5.0 | 0.00 | 0.00 | 0.00 | 83 | 1013.5 |
| 20260503223008 | 50 | 45 | 2.0 | 4.0 | 0.00 | 0.00 | 0.00 | 83 | 1013.5 |
| 20260503222608 | 50 | 45 | 2.0 | 4.0 | 0.00 | 0.00 | 0.00 | 83 | 1013.4 |
| 20260503222208 | 50 | 45 | 2.0 | 4.0 | 0.00 | 0.00 | 0.00 | 83 | 1013.4 |
| 20260503222008 | 50 | 45 | 3.0 | 4.0 | 0.00 | 0.00 | 0.00 | 82 | 1013.4 |
| 20260503221808 | 50 | 45 | 3.0 | 5.0 | 0.00 | 0.00 | 0.00 | 82 | 1013.4 |
| 20260503221608 | 50 | 45 | 3.0 | 5.0 | 0.00 | 0.00 | 0.00 | 82 | 1013.4 |
| 20260503221208 | 50 | 46 | 4.0 | 6.0 | 0.00 | 0.00 | 0.00 | 82 | 1013.4 |
| 20260503220808 | 50 | 46 | 4.0 | 6.0 | 0.00 | 0.00 | 0.00 | 82 | 1013.3 |
| 20260503220608 | 50 | 46 | 4.0 | 6.0 | 0.00 | 0.00 | 0.00 | 82 | 1013.3 |
| 20260503220208 | 50 | 46 | 3.0 | 6.0 | 0.00 | 0.00 | 0.00 | 82 | 1013.3 |
| 20260503220008 | 50 | 46 | 3.0 | 6.0 | 0.00 | 0.00 | 0.00 | 82 | 1013.3 |
| 20260503215808 | 50 | 45 | 3.0 | 6.0 | 0.00 | 0.00 | 0.00 | 82 | 1013.3 |
| 20260503215608 | 50 | 46 | 3.0 | 6.0 | 0.00 | 0.00 | 0.00 | 82 | 1013.2 |
| 20260503215408 | 50 | 46 | 3.0 | 6.0 | 0.00 | 0.00 | 0.00 | 82 | 1013.2 |
| 20260503215208 | 50 | 45 | 2.0 | 7.0 | 0.00 | 0.00 | 0.00 | 82 | 1013.2 |
| 20260503215008 | 50 | 46 | 2.0 | 7.0 | 0.00 | 0.00 | 0.00 | 81 | 1013.2 |
| 20260503214808 | 50 | 45 | 1.0 | 7.0 | 0.00 | 0.00 | 0.00 | 81 | 1013.2 |
| 20260503214608 | 50 | 45 | 1.0 | 7.0 | 0.00 | 0.00 | 0.00 | 81 | 1013.2 |
| 20260503214408 | 50 | 46 | 1.0 | 7.0 | 0.00 | 0.00 | 0.00 | 81 | 1013.1 |
| 20260503214208 | 50 | 45 | 1.0 | 4.0 | 0.00 | 0.00 | 0.00 | 81 | 1013.1 |
| 20260503214008 | 50 | 45 | 2.0 | 4.0 | 0.00 | 0.00 | 0.00 | 81 | 1013.0 |
| 20260503213808 | 50 | 45 | 2.0 | 4.0 | 0.00 | 0.00 | 0.00 | 81 | 1013.1 |
| 20260503213608 | 50 | 45 | 2.0 | 4.0 | 0.00 | 0.00 | 0.00 | 81 | 1013.0 |
| 20260503213408 | 50 | 45 | 2.0 | 5.0 | 0.00 | 0.00 | 0.00 | 81 | 1012.9 |
| 20260503213208 | 50 | 46 | 3.0 | 5.0 | 0.00 | 0.00 | 0.00 | 81 | 1013.0 |
| 20260503213008 | 50 | 45 | 3.0 | 5.0 | 0.00 | 0.00 | 0.00 | 80 | 1013.0 |
| 20260503212808 | 51 | 45 | 3.0 | 5.0 | 0.00 | 0.00 | 0.00 | 80 | 1012.9 |
| 20260503212608 | 51 | 45 | 3.0 | 5.0 | 0.00 | 0.00 | 0.00 | 80 | 1013.0 |
| 20260503212408 | 51 | 46 | 3.0 | 5.0 | 0.00 | 0.00 | 0.00 | 80 | 1013.1 |
| 20260503212207 | 51 | 45 | 3.0 | 5.0 | 0.00 | 0.00 | 0.00 | 80 | 1013.1 |
| 20260503212008 | 51 | 45 | 3.0 | 7.0 | 0.00 | 0.00 | 0.00 | 80 | 1013.1 |
| 20260503211808 | 51 | 46 | 3.0 | 7.0 | 0.00 | 0.00 | 0.00 | 80 | 1013.1 |
| 20260503211608 | 51 | 46 | 3.0 | 7.0 | 0.00 | 0.00 | 0.00 | 80 | 1013.0 |
| 20260503211408 | 51 | 45 | 3.0 | 7.0 | 0.00 | 0.00 | 0.00 | 80 | 1013.0 |
| 20260503211208 | 51 | 45 | 3.0 | 7.0 | 0.00 | 0.00 | 0.00 | 80 | 1013.0 |
| 20260503211008 | 51 | 46 | 3.0 | 6.0 | 0.00 | 0.00 | 0.00 | 80 | 1013.0 |
| 20260503210808 | 51 | 46 | 3.0 | 6.0 | 0.00 | 0.00 | 0.00 | 80 | 1013.0 |
| 20260503210608 | 51 | 46 | 3.0 | 6.0 | 0.00 | 0.00 | 0.00 | 80 | 1013.0 |
| 20260503210208 | 51 | 45 | 4.0 | 7.0 | 0.00 | 0.00 | 0.00 | 79 | 1012.9 |
| 20260503210008 | 51 | 45 | 4.0 | 7.0 | 0.00 | 0.00 | 0.00 | 79 | 1012.9 |
| 20260503205808 | 51 | 45 | 4.0 | 7.0 | 0.00 | 0.00 | 0.00 | 79 | 1012.9 |
| 20260503205607 | 51 | 46 | 4.0 | 7.0 | 0.00 | 0.00 | 0.00 | 79 | 1012.8 |
| 20260503205207 | 52 | 45 | 4.0 | 7.0 | 0.00 | 0.00 | 0.00 | 79 | 1012.8 |
| 20260503204807 | 52 | 45 | 4.0 | 6.0 | 0.00 | 0.00 | 0.00 | 78 | 1012.8 |
| 20260503204608 | 52 | 46 | 5.0 | 7.0 | 0.00 | 0.00 | 0.00 | 78 | 1012.7 |
| 20260503204207 | 52 | 46 | 5.0 | 7.0 | 0.00 | 0.00 | 0.00 | 78 | 1012.7 |
| 20260503204007 | 52 | 45 | 5.0 | 9.0 | 0.00 | 0.00 | 0.00 | 78 | 1012.7 |
| 20260503203608 | 52 | 45 | 5.0 | 9.0 | 0.00 | 0.00 | 0.00 | 78 | 1012.6 |
| 20260503203408 | 52 | 46 | 5.0 | 9.0 | 0.00 | 0.00 | 0.00 | 78 | 1012.6 |
| 20260503203208 | 52 | 46 | 4.0 | 9.0 | 0.00 | 0.00 | 0.00 | 78 | 1012.6 |
| 20260503203007 | 52 | 46 | 4.0 | 9.0 | 0.00 | 0.00 | 0.00 | 78 | 1012.6 |
| 20260503202808 | 52 | 46 | 4.0 | 9.0 | 0.00 | 0.00 | 0.00 | 77 | 1012.5 |
| 20260503202408 | 52 | 46 | 4.0 | 8.0 | 0.00 | 0.00 | 0.00 | 77 | 1012.3 |
| 20260503202207 | 52 | 46 | 4.0 | 8.0 | 0.00 | 0.00 | 0.00 | 77 | 1012.3 |
| 20260503202008 | 53 | 46 | 4.0 | 8.0 | 0.00 | 0.00 | 0.00 | 77 | 1012.4 |
| 20260503201808 | 53 | 45 | 4.0 | 8.0 | 0.00 | 0.00 | 0.00 | 77 | 1012.4 |
| 20260503201608 | 53 | 46 | 5.0 | 7.0 | 0.00 | 0.00 | 0.00 | 76 | 1012.3 |
| 20260503201408 | 53 | 46 | 5.0 | 7.0 | 0.00 | 0.00 | 0.00 | 76 | 1012.3 |
| 20260503201207 | 53 | 46 | 5.0 | 8.0 | 0.00 | 0.00 | 0.00 | 76 | 1012.2 |
| 20260503201007 | 53 | 46 | 5.0 | 9.0 | 0.00 | 0.00 | 0.00 | 76 | 1012.2 |
| 20260503200808 | 53 | 46 | 5.0 | 9.0 | 0.00 | 0.00 | 0.00 | 76 | 1012.2 |
| 20260503200608 | 53 | 46 | 5.0 | 9.0 | 0.00 | 0.00 | 0.00 | 75 | 1012.1 |
| 20260503200408 | 53 | 45 | 5.0 | 9.0 | 0.00 | 0.00 | 0.00 | 75 | 1012.1 |
| 20260503200208 | 53 | 45 | 5.0 | 10.0 | 0.00 | 0.00 | 0.00 | 75 | 1012.1 |
| 20260503200008 | 53 | 46 | 5.0 | 10.0 | 0.00 | 0.00 | 0.00 | 75 | 1012.1 |
| 20260503195808 | 54 | 46 | 5.0 | 10.0 | 0.00 | 0.00 | 0.00 | 75 | 1012.1 |
| 20260503195608 | 54 | 45 | 5.0 | 10.0 | 0.00 | 0.00 | 0.00 | 74 | 1012.0 |
| 20260503195208 | 54 | 46 | 5.0 | 9.0 | 0.00 | 0.00 | 0.00 | 74 | 1011.9 |
| 20260503195008 | 54 | 45 | 5.0 | 9.0 | 0.00 | 0.00 | 0.00 | 74 | 1011.9 |
| 20260503194808 | 54 | 45 | 5.0 | 9.0 | 0.00 | 0.00 | 0.00 | 74 | 1011.8 |
| 20260503194608 | 54 | 46 | 5.0 | 9.0 | 0.00 | 0.00 | 0.00 | 73 | 1011.9 |
| 20260503194208 | 54 | 46 | 5.0 | 9.0 | 0.00 | 0.00 | 0.00 | 73 | 1011.8 |
| 20260503194008 | 54 | 46 | 5.0 | 9.0 | 0.00 | 0.00 | 0.00 | 73 | 1011.9 |
| 20260503193808 | 54 | 45 | 6.0 | 9.0 | 0.00 | 0.00 | 0.00 | 73 | 1011.8 |
| 20260503193608 | 54 | 45 | 6.0 | 10.0 | 0.00 | 0.00 | 0.00 | 73 | 1011.8 |
| 20260503193408 | 54 | 46 | 7.0 | 10.0 | 0.00 | 0.00 | 0.00 | 73 | 1011.8 |
| 20260503193208 | 55 | 45 | 7.0 | 11.0 | 0.00 | 0.00 | 0.00 | 73 | 1011.9 |
| 20260503193008 | 55 | 46 | 7.0 | 11.0 | 0.00 | 0.00 | 0.00 | 72 | 1011.8 |
| 20260503192808 | 55 | 46 | 7.0 | 13.0 | 0.00 | 0.00 | 0.00 | 72 | 1011.7 |
| 20260503192408 | 55 | 45 | 6.0 | 13.0 | 0.00 | 0.00 | 0.00 | 72 | 1011.7 |
| 20260503192208 | 55 | 45 | 6.0 | 13.0 | 0.00 | 0.00 | 0.00 | 72 | 1011.8 |
| 20260503192008 | 55 | 45 | 6.0 | 13.0 | 0.00 | 0.00 | 0.00 | 72 | 1011.8 |
| 20260503191608 | 55 | 46 | 6.0 | 9.0 | 0.00 | 0.00 | 0.00 | 73 | 1011.7 |
| 20260503191408 | 55 | 46 | 6.0 | 11.0 | 0.00 | 0.00 | 0.00 | 73 | 1011.7 |
| 20260503191208 | 55 | 46 | 7.0 | 11.0 | 0.00 | 0.00 | 0.00 | 73 | 1011.7 |
| 20260503191007 | 55 | 45 | 7.0 | 11.0 | 0.00 | 0.00 | 0.00 | 73 | 1011.6 |
| 20260503190808 | 56 | 45 | 7.0 | 11.0 | 0.00 | 0.00 | 0.00 | 73 | 1011.6 |
| 20260503190607 | 56 | 45 | 7.0 | 11.0 | 0.00 | 0.00 | 0.00 | 73 | 1011.6 |
| 20260503190207 | 56 | 46 | 8.0 | 11.0 | 0.00 | 0.00 | 0.00 | 73 | 1011.6 |
| 20260503185808 | 56 | 46 | 8.0 | 11.0 | 0.00 | 0.00 | 0.00 | 72 | 1011.5 |
| 20260503185607 | 56 | 46 | 7.0 | 11.0 | 0.00 | 0.00 | 0.00 | 72 | 1011.5 |
| 20260503185408 | 56 | 45 | 7.0 | 12.0 | 0.00 | 0.00 | 0.00 | 72 | 1011.5 |
| 20260503185208 | 56 | 45 | 6.0 | 12.0 | 0.00 | 0.00 | 0.00 | 72 | 1011.6 |
| 20260503185008 | 56 | 45 | 5.0 | 12.0 | 0.00 | 0.00 | 0.00 | 71 | 1011.6 |
| 20260503184808 | 56 | 46 | 5.0 | 12.0 | 0.00 | 0.00 | 0.00 | 71 | 1011.6 |
| 20260503184408 | 56 | 46 | 4.0 | 10.0 | 0.00 | 0.00 | 0.00 | 71 | 1011.5 |